Time;durP1;ratioP1;P1;durP2;ratioP2;P2;SDS_P1;SDS_P2;PMS_P1;PMS_P2;Temp;Humidity;BMP_temperature;BMP_pressure;BME280_temperature;BME280_humidity;BME280_pressure;Samples;Min_cycle;Max_cycle;Signal;HPM_P1;HPM_P2
2023/04/04 00:00:15;;;;;;;1.40;0.93;;;2.90;99.90;;;;;;5077969;28;20672;-63
2023/04/04 00:02:40;;;;;;;1.45;0.93;;;2.90;99.90;;;;;;5077448;28;20033;-62
2023/04/04 00:05:07;;;;;;;3.33;1.10;;;2.90;99.90;;;;;;5078291;28;20035;-62
2023/04/04 00:07:33;;;;;;;1.58;0.90;;;2.80;99.90;;;;;;5078380;28;20028;-62
2023/04/04 00:09:59;;;;;;;2.70;1.23;;;2.80;99.90;;;;;;5078108;28;20177;-62
2023/04/04 00:12:24;;;;;;;3.50;1.50;;;2.70;99.90;;;;;;5078414;28;20020;-62
2023/04/04 00:14:50;;;;;;;1.33;1.00;;;2.70;99.90;;;;;;5075857;28;20431;-73
2023/04/04 00:17:17;;;;;;;1.70;1.00;;;2.70;99.90;;;;;;5077883;28;20023;-62
2023/04/04 00:19:42;;;;;;;2.33;1.55;;;2.80;99.90;;;;;;5078243;28;20442;-62
2023/04/04 00:22:09;;;;;;;2.90;1.67;;;2.60;99.90;;;;;;5077879;28;20032;-62
2023/04/04 00:24:35;;;;;;;3.72;1.02;;;2.60;99.90;;;;;;5078134;28;20028;-62
2023/04/04 00:27:01;;;;;;;2.95;1.55;;;2.50;99.90;;;;;;5077397;28;20454;-62
2023/04/04 00:29:27;;;;;;;2.13;1.33;;;2.40;99.90;;;;;;5077753;28;20035;-62
2023/04/04 00:31:53;;;;;;;6.80;1.57;;;2.40;99.90;;;;;;5078097;28;20126;-74
2023/04/04 00:34:18;;;;;;;3.07;1.30;;;2.30;99.90;;;;;;5077360;28;20024;-62
2023/04/04 00:36:45;;;;;;;2.13;1.47;;;2.30;99.90;;;;;;5077804;28;20079;-62
2023/04/04 00:39:10;;;;;;;2.35;1.35;;;2.20;99.90;;;;;;5077522;28;20032;-62
2023/04/04 00:41:36;;;;;;;4.73;1.83;;;2.20;99.90;;;;;;5078057;28;20047;-65
2023/04/04 00:44:02;;;;;;;2.63;1.40;;;2.20;99.90;;;;;;5077552;28;20427;-62
2023/04/04 00:46:28;;;;;;;3.57;1.73;;;2.20;99.90;;;;;;5077548;28;20100;-62
2023/04/04 00:48:54;;;;;;;3.95;1.40;;;2.20;99.90;;;;;;5076650;28;20024;-73
2023/04/04 00:51:20;;;;;;;6.90;1.75;;;2.20;99.90;;;;;;5077192;28;20123;-62
2023/04/04 00:53:47;;;;;;;5.07;1.77;;;2.20;99.90;;;;;;5076672;28;20092;-62
2023/04/04 00:56:13;;;;;;;3.85;1.98;;;2.20;99.90;;;;;;5077559;28;20162;-62
2023/04/04 00:58:40;;;;;;;6.25;1.50;;;2.10;99.90;;;;;;5077115;28;20029;-63
2023/04/04 01:01:06;;;;;;;;;;;2.10;99.90;;;;;;5077630;28;20097;-62
2023/04/04 01:03:32;;;;;;;3.08;1.88;;;2.10;99.90;;;;;;5077297;28;20290;-62
2023/04/04 01:05:58;;;;;;;7.40;1.70;;;2.10;99.90;;;;;;5077394;28;20031;-74
2023/04/04 01:08:26;;;;;;;5.72;1.85;;;2.10;99.90;;;;;;5076739;28;20159;-62
2023/04/04 01:10:52;;;;;;;5.55;1.65;;;2.10;99.90;;;;;;5077211;28;20024;-62
2023/04/04 01:13:18;;;;;;;2.70;1.47;;;2.00;99.90;;;;;;5077223;28;20311;-62
2023/04/04 01:15:44;;;;;;;4.97;1.63;;;2.00;99.90;;;;;;5075762;28;20028;-63
2023/04/04 01:18:13;;;;;;;2.75;1.70;;;2.10;99.90;;;;;;5077188;28;20090;-62
2023/04/04 01:20:51;;;;;;;6.20;1.60;;;2.10;99.90;;;;;;5077104;28;20024;-62
2023/04/04 01:23:18;;;;;;;6.22;2.60;;;2.10;99.90;;;;;;5074704;28;20047;-62
2023/04/04 01:25:45;;;;;;;;;;;2.10;99.90;;;;;;5076844;28;20411;-62
2023/04/04 01:28:10;;;;;;;3.97;1.80;;;2.10;99.90;;;;;;5075503;28;19969;-62
2023/04/04 01:30:38;;;;;;;4.17;1.60;;;2.10;99.90;;;;;;5076382;28;20021;-64
2023/04/04 01:33:14;;;;;;;6.47;2.15;;;2.10;99.90;;;;;;5076758;28;20075;-62
2023/04/04 01:35:56;;;;;;;6.72;2.28;;;2.20;99.90;;;;;;5076528;28;20408;-62
2023/04/04 01:38:59;;;;;;;4.97;2.38;;;2.10;99.90;;;;;;5077020;28;20037;-62
2023/04/04 01:41:27;;;;;;;4.47;2.00;;;2.10;99.90;;;;;;5051257;28;20125;-62
2023/04/04 01:43:55;;;;;;;5.03;2.40;;;2.00;99.90;;;;;;5076718;28;20081;-62
2023/04/04 01:46:22;;;;;;;4.40;2.10;;;2.10;99.90;;;;;;5076129;28;20040;-62
2023/04/04 01:48:47;;;;;;;;;;;2.20;99.90;;;;;;5076876;28;20442;-63
2023/04/04 01:51:13;;;;;;;4.50;1.70;;;2.20;99.90;;;;;;5076641;28;19904;-62
2023/04/04 01:53:39;;;;;;;2.67;1.92;;;2.20;99.90;;;;;;5062453;28;20020;-62
2023/04/04 01:56:05;;;;;;;5.27;2.10;;;2.20;99.90;;;;;;5076322;28;20028;-62
2023/04/04 01:58:31;;;;;;;2.70;1.73;;;2.20;99.90;;;;;;5074646;28;20028;-62
2023/04/04 02:00:57;;;;;;;5.07;2.33;;;2.00;99.90;;;;;;5076234;28;20077;-62
2023/04/04 02:03:22;;;;;;;5.20;2.00;;;2.00;99.90;;;;;;5076059;28;20423;-62
2023/04/04 02:05:48;;;;;;;4.67;2.53;;;1.90;99.90;;;;;;5076082;28;20024;-63
2023/04/04 02:08:14;;;;;;;4.57;2.67;;;1.90;99.90;;;;;;5075477;28;20043;-62
2023/04/04 02:10:40;;;;;;;3.77;2.33;;;1.80;99.90;;;;;;5076018;28;20028;-62
2023/04/04 02:13:06;;;;;;;4.87;2.40;;;1.80;99.90;;;;;;5075262;28;20105;-62
2023/04/04 02:15:33;;;;;;;6.43;1.63;;;1.70;99.90;;;;;;5075513;28;20312;-62
2023/04/04 02:17:59;;;;;;;5.47;2.58;;;1.60;99.90;;;;;;5074451;28;20030;-63
2023/04/04 02:20:24;;;;;;;3.83;2.43;;;1.60;99.90;;;;;;5076186;28;20024;-62
2023/04/04 02:22:54;;;;;;;7.77;2.97;;;1.50;99.90;;;;;;5075865;28;20028;-62
2023/04/04 02:25:22;;;;;;;7.03;2.50;;;1.60;99.90;;;;;;5074173;28;20043;-63
2023/04/04 02:27:48;;;;;;;6.95;2.35;;;1.60;99.90;;;;;;5075479;28;20098;-62
2023/04/04 02:30:14;;;;;;;4.83;2.37;;;1.50;99.90;;;;;;5075508;28;20407;-62
2023/04/04 02:32:41;;;;;;;8.57;2.50;;;1.50;99.90;;;;;;5075569;28;20082;-63
2023/04/04 02:35:07;;;;;;;6.07;2.58;;;1.50;99.90;;;;;;5070561;28;20355;-62
2023/04/04 02:37:33;;;;;;;7.53;3.20;;;1.50;99.90;;;;;;5065340;28;20074;-62
2023/04/04 02:39:59;;;;;;;6.30;2.47;;;1.60;99.90;;;;;;5075029;28;20307;-62
2023/04/04 02:42:25;;;;;;;6.47;1.93;;;1.50;99.90;;;;;;5075598;28;20036;-62
2023/04/04 02:44:50;;;;;;;3.07;2.00;;;1.50;99.90;;;;;;5075611;28;20074;-62
2023/04/04 02:47:16;;;;;;;5.47;2.00;;;1.40;99.90;;;;;;5074775;28;20066;-62
2023/04/04 02:49:42;;;;;;;3.87;2.47;;;1.40;99.90;;;;;;5075493;28;20021;-74
2023/04/04 02:52:08;;;;;;;3.70;2.07;;;1.30;99.90;;;;;;5074803;28;20371;-62
2023/04/04 02:54:33;;;;;;;5.10;2.63;;;1.30;99.90;;;;;;5075264;28;20036;-62
2023/04/04 02:56:59;;;;;;;4.00;2.57;;;1.10;99.90;;;;;;5075172;28;20043;-62
2023/04/04 02:59:25;;;;;;;3.37;2.00;;;1.10;99.90;;;;;;5075166;28;20044;-74
2023/04/04 03:01:51;;;;;;;4.20;2.70;;;1.10;99.90;;;;;;5075288;28;20032;-62
2023/04/04 03:04:18;;;;;;;5.67;2.27;;;1.00;99.90;;;;;;5074498;28;20031;-62
2023/04/04 03:06:45;;;;;;;5.28;2.42;;;1.00;99.90;;;;;;5075285;28;20047;-64
2023/04/04 03:09:11;;;;;;;4.40;2.55;;;0.90;99.90;;;;;;5074931;28;20021;-63
2023/04/04 03:11:37;;;;;;;5.43;3.03;;;0.80;99.90;;;;;;5075276;28;20020;-62
2023/04/04 03:14:02;;;;;;;4.30;2.63;;;0.70;99.90;;;;;;5074784;28;20433;-62
2023/04/04 03:16:28;;;;;;;5.20;3.20;;;0.70;99.90;;;;;;5075196;28;20422;-63
2023/04/04 03:18:55;;;;;;;9.13;2.97;;;0.60;99.90;;;;;;5075098;28;20027;-62
2023/04/04 03:21:21;;;;;;;7.35;3.08;;;0.60;99.90;;;;;;5074548;28;20099;-63
2023/04/04 03:23:46;;;;;;;5.20;2.53;;;0.60;99.90;;;;;;5075116;28;20115;-62
2023/04/04 03:26:12;;;;;;;2.63;1.70;;;0.50;99.90;;;;;;5074409;28;20420;-62
2023/04/04 03:28:38;;;;;;;4.40;2.00;;;0.50;99.90;;;;;;5074569;28;20045;-62
2023/04/04 03:31:04;;;;;;;6.80;2.87;;;0.50;99.90;;;;;;5074519;28;20032;-62
2023/04/04 03:33:31;;;;;;;6.22;2.92;;;0.50;99.90;;;;;;5074662;28;20056;-62
2023/04/04 03:35:58;;;;;;;5.65;2.70;;;0.50;99.90;;;;;;5074884;28;20020;-62
2023/04/04 03:38:24;;;;;;;5.95;2.92;;;0.40;99.90;;;;;;5074507;28;20020;-62
2023/04/04 03:40:59;;;;;;;6.57;2.60;;;0.40;99.90;;;;;;5074855;28;20056;-62
2023/04/04 03:43:25;;;;;;;4.50;2.65;;;0.30;99.90;;;;;;5074169;28;20060;-62
2023/04/04 03:45:52;;;;;;;8.40;2.53;;;0.30;99.90;;;;;;5074760;28;20363;-73
2023/04/04 03:48:18;;;;;;;8.73;3.13;;;0.30;99.90;;;;;;5074074;28;20028;-62
2023/04/04 03:50:44;;;;;;;3.80;2.70;;;0.20;99.90;;;;;;5074646;28;20354;-62
2023/04/04 03:53:11;;;;;;;6.80;3.17;;;0.20;99.90;;;;;;5074227;28;20024;-62
2023/04/04 03:55:40;;;;;;;6.57;3.03;;;0.20;99.90;;;;;;5074660;28;20031;-62
2023/04/04 03:58:06;;;;;;;4.72;2.80;;;0.10;99.90;;;;;;5074614;28;20036;-66
2023/04/04 04:00:32;;;;;;;9.03;3.40;;;0.10;99.90;;;;;;5074604;28;20017;-62
2023/04/04 04:02:57;;;;;;;8.57;4.10;;;0.10;99.90;;;;;;5074573;28;20319;-62
2023/04/04 04:05:23;;;;;;;8.63;3.40;;;0.00;99.90;;;;;;5074562;28;20016;-62
2023/04/04 04:07:49;;;;;;;5.60;2.20;;;0.00;99.90;;;;;;5074409;28;20069;-63
2023/04/04 04:10:15;;;;;;;6.40;3.67;;;0.00;99.90;;;;;;5074096;28;20021;-62
2023/04/04 04:12:41;;;;;;;11.05;3.88;;;-0.10;99.90;;;;;;5073269;28;20016;-62
2023/04/04 04:15:07;;;;;;;6.47;3.53;;;-0.10;99.90;;;;;;5074540;28;20024;-63
2023/04/04 04:17:33;;;;;;;9.20;3.05;;;-0.10;99.90;;;;;;5073929;28;20012;-62
2023/04/04 04:19:59;;;;;;;7.23;3.37;;;-0.10;99.90;;;;;;5074403;28;20461;-62
2023/04/04 04:22:25;;;;;;;5.35;2.63;;;-0.10;99.90;;;;;;5072823;28;20027;-62
2023/04/04 04:24:51;;;;;;;8.07;3.83;;;-0.10;99.90;;;;;;5074528;28;20032;-73
2023/04/04 04:27:17;;;;;;;6.20;3.40;;;-0.10;99.90;;;;;;5073731;28;20275;-62
2023/04/04 04:29:42;;;;;;;8.87;2.50;;;-0.10;99.90;;;;;;5072992;28;20020;-62
2023/04/04 04:32:08;;;;;;;7.17;3.00;;;-0.10;99.90;;;;;;5074281;28;20403;-73
2023/04/04 04:34:34;;;;;;;6.87;3.30;;;-0.10;99.90;;;;;;5073890;28;20024;-62
2023/04/04 04:36:59;;;;;;;7.70;3.17;;;0.00;99.90;;;;;;5077957;28;20099;-62
2023/04/04 04:39:26;;;;;;;6.03;3.37;;;0.00;99.90;;;;;;5076810;28;20029;-62
2023/04/04 04:41:52;;;;;;;6.18;3.55;;;0.00;99.90;;;;;;5077449;28;20127;-62
2023/04/04 04:44:18;;;;;;;10.50;3.23;;;-0.10;99.90;;;;;;5077696;28;20107;-62
2023/04/04 04:46:44;;;;;;;7.03;3.50;;;-0.10;99.90;;;;;;5077259;28;20668;-62
2023/04/04 04:49:09;;;;;;;6.00;3.20;;;-0.10;99.90;;;;;;5077588;28;20040;-62
2023/04/04 04:51:35;;;;;;;11.40;3.33;;;-0.20;99.90;;;;;;5077281;28;20380;-62
2023/04/04 04:54:01;;;;;;;11.40;3.67;;;-0.20;99.90;;;;;;5077583;28;20020;-62
2023/04/04 04:56:27;;;;;;;7.63;3.50;;;-0.20;99.90;;;;;;5077432;28;20296;-62
2023/04/04 04:58:53;;;;;;;5.10;3.03;;;-0.30;99.90;;;;;;5076916;28;20025;-63
2023/04/04 05:01:18;;;;;;;9.88;3.25;;;-0.30;99.90;;;;;;5076379;28;20036;-62
2023/04/04 05:03:44;;;;;;;5.93;3.87;;;-0.30;99.90;;;;;;5076993;28;20020;-62
2023/04/04 05:06:10;;;;;;;7.27;3.50;;;-0.30;99.90;;;;;;5077475;28;20060;-62
2023/04/04 05:08:36;;;;;;;6.77;3.20;;;-0.40;99.90;;;;;;5076722;28;20723;-62
2023/04/04 05:11:01;;;;;;;7.80;3.70;;;-0.30;99.90;;;;;;5077397;28;20319;-62
2023/04/04 05:13:27;;;;;;;9.27;4.03;;;-0.30;99.90;;;;;;5077058;28;20020;-62
2023/04/04 05:15:53;;;;;;;5.73;2.77;;;-0.40;99.90;;;;;;5077099;28;20439;-73
2023/04/04 05:18:18;;;;;;;6.07;3.40;;;-0.30;99.90;;;;;;5076996;28;20032;-62
2023/04/04 05:20:55;;;;;;;8.27;2.77;;;-0.30;99.90;;;;;;5076484;28;20319;-62
2023/04/04 05:23:21;;;;;;;;;;;-0.30;99.90;;;;;;5077571;28;20021;-72
2023/04/04 05:25:52;;;;;;;5.28;2.65;;;-0.30;99.90;;;;;;5076924;28;19911;-63
2023/04/04 05:28:18;;;;;;;5.85;3.28;;;-0.40;99.90;;;;;;5075408;28;20043;-62
2023/04/04 05:30:44;;;;;;;9.70;3.20;;;-0.30;99.90;;;;;;5076835;28;20017;-62
2023/04/04 05:33:10;;;;;;;14.65;4.30;;;-0.30;99.90;;;;;;5076262;28;20423;-62
2023/04/04 05:35:36;;;;;;;5.83;2.97;;;-0.30;99.90;;;;;;5077064;28;20051;-62
2023/04/04 05:38:02;;;;;;;6.23;3.17;;;-0.20;99.90;;;;;;5076614;28;20045;-62
2023/04/04 05:40:27;;;;;;;9.90;3.87;;;-0.20;99.90;;;;;;5076834;28;20059;-63
2023/04/04 05:42:58;;;;;;;8.47;3.33;;;-0.20;99.90;;;;;;5076119;28;20253;-73
2023/04/04 05:45:24;;;;;;;5.25;3.03;;;-0.10;99.90;;;;;;5076852;28;20029;-62
2023/04/04 05:47:50;;;;;;;7.78;3.63;;;-0.10;99.90;;;;;;5076337;28;20442;-72
2023/04/04 05:50:17;;;;;;;5.15;3.20;;;-0.10;99.90;;;;;;5076433;28;20031;-63
2023/04/04 05:52:43;;;;;;;12.27;3.53;;;0.00;99.90;;;;;;5076567;28;20308;-62
2023/04/04 05:55:09;;;;;;;8.07;3.10;;;0.00;99.90;;;;;;5076004;28;20072;-62
2023/04/04 05:57:34;;;;;;;4.68;2.13;;;-0.10;99.90;;;;;;5076257;28;20292;-73
2023/04/04 06:00:00;;;;;;;5.63;3.23;;;0.00;99.90;;;;;;5076141;28;20380;-62
2023/04/04 06:02:26;;;;;;;7.80;3.83;;;0.00;99.90;;;;;;5076226;28;20028;-62
2023/04/04 06:04:52;;;;;;;6.00;3.73;;;0.00;99.90;;;;;;5076409;28;20321;-62
2023/04/04 06:07:18;;;;;;;11.90;4.10;;;0.00;99.90;;;;;;5075693;28;20369;-62
2023/04/04 06:09:44;;;;;;;5.93;3.53;;;0.10;99.90;;;;;;5076198;28;20036;-62
2023/04/04 06:12:10;;;;;;;7.47;3.37;;;0.10;99.90;;;;;;5075709;28;20028;-62
2023/04/04 06:14:36;;;;;;;10.50;4.50;;;0.30;99.90;;;;;;5076155;28;20319;-62
2023/04/04 06:17:02;;;;;;;10.90;4.35;;;0.40;99.90;;;;;;5075510;28;20016;-62
2023/04/04 06:19:28;;;;;;;6.95;3.55;;;0.50;99.90;;;;;;5074629;28;20070;-62
2023/04/04 06:21:54;;;;;;;7.37;4.33;;;0.60;99.90;;;;;;5075964;28;20431;-62
2023/04/04 06:24:19;;;;;;;7.97;3.60;;;0.60;99.90;;;;;;5075318;28;20044;-62
2023/04/04 06:26:45;;;;;;;8.33;4.07;;;0.60;99.90;;;;;;5075557;28;20032;-62
2023/04/04 06:29:11;;;;;;;8.03;4.00;;;0.70;99.90;;;;;;5075437;28;20369;-62
2023/04/04 06:31:37;;;;;;;9.87;4.03;;;0.90;99.90;;;;;;5075298;28;20021;-62
2023/04/04 06:34:02;;;;;;;6.83;4.23;;;1.00;99.90;;;;;;5075436;28;20017;-62
2023/04/04 06:36:28;;;;;;;8.30;4.20;;;1.10;99.90;;;;;;5075436;28;20091;-62
2023/04/04 06:38:54;;;;;;;10.77;4.53;;;1.10;99.90;;;;;;5075398;28;20024;-74
2023/04/04 06:41:19;;;;;;;13.20;4.43;;;1.30;99.90;;;;;;5075092;28;20035;-63
2023/04/04 06:43:47;;;;;;;9.13;4.40;;;1.50;99.90;;;;;;5075588;28;20024;-62
2023/04/04 06:46:13;;;;;;;10.50;5.38;;;1.80;99.90;;;;;;5075484;28;20021;-62
2023/04/04 06:48:38;;;;;;;8.23;4.33;;;2.30;99.90;;;;;;5074821;28;20610;-62
2023/04/04 06:51:06;;;;;;;13.67;5.60;;;2.90;99.90;;;;;;5075409;28;20074;-63
2023/04/04 06:53:33;;;;;;;12.75;4.57;;;3.60;99.90;;;;;;5074864;28;20407;-62
2023/04/04 06:55:59;;;;;;;12.43;4.68;;;4.10;99.90;;;;;;5075072;28;20507;-62
2023/04/04 06:58:24;;;;;;;5.78;3.45;;;4.40;99.90;;;;;;5074658;28;20043;-73
2023/04/04 07:00:50;;;;;;;6.90;3.67;;;4.40;99.90;;;;;;5075477;28;20024;-62
2023/04/04 07:03:16;;;;;;;6.80;3.33;;;4.50;99.90;;;;;;5075022;28;20043;-62
2023/04/04 07:05:42;;;;;;;8.33;2.63;;;4.80;99.90;;;;;;5073601;28;20027;-62
2023/04/04 07:08:08;;;;;;;8.53;3.37;;;5.10;99.90;;;;;;5075276;28;20025;-72
2023/04/04 07:10:34;;;;;;;6.65;2.92;;;5.50;99.90;;;;;;5074364;28;20016;-62
2023/04/04 07:13:00;;;;;;;5.77;2.87;;;5.90;99.90;;;;;;5074880;28;20119;-61
2023/04/04 07:15:27;;;;;;;7.73;3.23;;;6.50;99.90;;;;;;5074503;28;20024;-73
2023/04/04 07:17:53;;;;;;;8.40;3.30;;;7.10;99.90;;;;;;5074963;28;20335;-62
2023/04/04 07:20:19;;;;;;;7.80;2.88;;;8.00;99.90;;;;;;5074366;28;20025;-62
2023/04/04 07:22:45;;;;;;;9.20;3.20;;;8.80;99.90;;;;;;5073812;28;20020;-62
2023/04/04 07:25:12;;;;;;;8.45;2.85;;;9.50;99.90;;;;;;5074880;28;20027;-62
2023/04/04 07:27:39;;;;;;;3.85;2.50;;;9.90;99.90;;;;;;5074021;28;20036;-62
2023/04/04 07:30:06;;;;;;;7.05;2.58;;;10.30;99.90;;;;;;5074878;28;20327;-62
2023/04/04 07:32:31;;;;;;;6.35;2.15;;;10.60;99.90;;;;;;5074606;28;20058;-73
2023/04/04 07:34:57;;;;;;;7.57;2.77;;;11.00;99.90;;;;;;5074408;28;20067;-62
2023/04/04 07:37:25;;;;;;;6.93;1.93;;;11.10;99.90;;;;;;5074776;28;20029;-62
2023/04/04 07:39:51;;;;;;;10.60;2.63;;;11.50;99.90;;;;;;5074375;28;20029;-62
2023/04/04 07:42:22;;;;;;;4.95;2.47;;;12.00;99.90;;;;;;5074676;28;20443;-65
2023/04/04 07:44:51;;;;;;;4.38;2.35;;;12.60;99.80;;;;;;5074415;28;20032;-63
2023/04/04 07:47:17;;;;;;;8.90;2.90;;;12.70;97.30;;;;;;5074798;28;20024;-63
2023/04/04 07:49:43;;;;;;;6.82;2.10;;;12.90;99.00;;;;;;5074170;28;20434;-63
2023/04/04 07:52:09;;;;;;;3.40;1.77;;;13.60;97.20;;;;;;5074830;28;20028;-63
2023/04/04 07:54:35;;;;;;;4.03;1.80;;;13.90;95.80;;;;;;5074647;28;20388;-63
2023/04/04 07:57:04;;;;;;;7.97;2.50;;;13.70;95.30;;;;;;5074327;28;20044;-63
2023/04/04 07:59:31;;;;;;;5.15;1.75;;;13.90;96.00;;;;;;5074808;28;20102;-63
2023/04/04 08:01:56;;;;;;;3.20;1.95;;;14.10;95.20;;;;;;5074403;28;20107;-63
2023/04/04 08:04:22;;;;;;;2.80;1.30;;;14.60;95.00;;;;;;5074578;28;20107;-63
2023/04/04 08:06:48;;;;;;;3.93;2.17;;;14.40;93.10;;;;;;5073156;28;20086;-63
2023/04/04 08:09:13;;;;;;;5.27;2.10;;;14.50;93.80;;;;;;5074635;28;20032;-63
2023/04/04 08:11:40;;;;;;;5.27;1.87;;;12.80;92.90;;;;;;5077632;28;20016;-63
2023/04/04 08:14:05;;;;;;;6.88;1.90;;;12.30;94.60;;;;;;5071931;28;20116;-64
2023/04/04 08:16:31;;;;;;;2.67;1.43;;;12.50;96.00;;;;;;5069268;28;20100;-63
2023/04/04 08:18:57;;;;;;;7.07;1.47;;;12.60;94.20;;;;;;5078170;28;20032;-63
2023/04/04 08:21:23;;;;;;;4.18;1.90;;;12.20;93.50;;;;;;5078050;28;20036;-63
2023/04/04 08:23:49;;;;;;;2.10;1.00;;;11.30;95.00;;;;;;5077607;28;20124;-63
2023/04/04 08:26:14;;;;;;;6.47;1.38;;;10.70;94.50;;;;;;5078103;28;20477;-63
2023/04/04 08:28:40;;;;;;;2.97;1.30;;;11.10;94.50;;;;;;5077885;28;20047;-62
2023/04/04 08:31:07;;;;;;;7.45;1.80;;;10.80;93.80;;;;;;5076443;28;20028;-62
2023/04/04 08:33:33;;;;;;;;;;;10.70;94.40;;;;;;5078302;28;20040;-63
2023/04/04 08:35:59;;;;;;;8.48;1.10;;;11.20;94.30;;;;;;5078213;28;20257;-62
2023/04/04 08:38:25;;;;;;;2.10;0.90;;;10.90;93.70;;;;;;5077721;28;20025;-62
2023/04/04 08:40:52;;;;;;;3.50;1.13;;;10.60;94.20;;;;;;5078118;28;20039;-63
2023/04/04 08:43:20;;;;;;;2.63;1.17;;;10.00;94.50;;;;;;5077629;28;20024;-68
2023/04/04 08:45:48;;;;;;;3.65;1.58;;;9.80;94.10;;;;;;5077601;28;20024;-62
2023/04/04 08:48:16;;;;;;;2.50;1.00;;;9.50;94.90;;;;;;5077408;28;20025;-74
2023/04/04 08:50:42;;;;;;;4.53;1.40;;;9.50;94.70;;;;;;5077430;28;20021;-63
2023/04/04 08:53:10;;;;;;;4.50;1.30;;;9.70;95.40;;;;;;5077280;28;20111;-62
2023/04/04 08:55:37;;;;;;;5.65;1.33;;;9.30;96.90;;;;;;5077445;28;20016;-62
2023/04/04 08:58:03;;;;;;;3.10;1.30;;;9.50;94.90;;;;;;5076234;28;20055;-62
2023/04/04 09:00:29;;;;;;;4.25;1.25;;;9.30;93.90;;;;;;5077337;28;20070;-62
2023/04/04 09:03:06;;;;;;;2.20;1.10;;;9.20;94.60;;;;;;5077369;28;20036;-62
2023/04/04 09:05:32;;;;;;;1.98;1.10;;;9.10;95.90;;;;;;5076912;28;20020;-62
2023/04/04 09:07:58;;;;;;;5.07;1.45;;;9.40;96.00;;;;;;5077211;28;20442;-62
2023/04/04 09:10:24;;;;;;;2.42;1.00;;;9.60;95.70;;;;;;5076863;28;20052;-62
2023/04/04 09:12:50;;;;;;;4.07;1.20;;;9.40;96.40;;;;;;5077248;28;20025;-63
2023/04/04 09:15:16;;;;;;;3.30;1.37;;;9.20;95.60;;;;;;5076892;28;20078;-63
2023/04/04 09:17:42;;;;;;;4.00;1.30;;;9.10;95.10;;;;;;5076946;28;20391;-62
2023/04/04 09:20:33;;;;;;;2.50;1.17;;;8.90;94.70;;;;;;5077116;28;20457;-62
2023/04/04 09:23:00;;;;;;;3.38;1.13;;;8.90;94.60;;;;;;5058563;28;20039;-62
2023/04/04 09:25:25;;;;;;;3.75;1.40;;;9.00;96.00;;;;;;5076773;28;20041;-74
2023/04/04 09:27:56;;;;;;;4.57;1.00;;;9.10;95.90;;;;;;5076633;28;20040;-62
2023/04/04 09:30:22;;;;;;;6.13;1.10;;;9.20;95.50;;;;;;5077046;28;20100;-62
2023/04/04 09:32:48;;;;;;;3.90;1.02;;;9.10;96.30;;;;;;5076322;28;20060;-62
2023/04/04 09:35:14;;;;;;;1.45;0.90;;;9.00;94.40;;;;;;5076894;28;20052;-73
2023/04/04 09:37:41;;;;;;;4.80;1.60;;;9.00;95.20;;;;;;5076648;28;20074;-62
2023/04/04 09:40:12;;;;;;;3.63;1.90;;;9.00;94.90;;;;;;5076391;28;20044;-63
2023/04/04 09:42:38;;;;;;;5.00;1.30;;;8.80;95.50;;;;;;5076506;28;20028;-63
2023/04/04 09:45:04;;;;;;;2.27;1.20;;;9.00;95.80;;;;;;5076666;28;20073;-63
2023/04/04 09:47:32;;;;;;;7.55;1.80;;;9.10;95.00;;;;;;5076271;28;20119;-62
2023/04/04 09:49:59;;;;;;;5.22;1.60;;;9.00;97.30;;;;;;5076464;28;20033;-62
2023/04/04 09:52:25;;;;;;;3.88;1.90;;;8.90;94.90;;;;;;5076402;28;20047;-62
2023/04/04 09:54:58;;;;;;;3.97;1.30;;;9.10;96.90;;;;;;5076150;28;20024;-62
2023/04/04 09:57:28;;;;;;;3.53;1.48;;;9.20;96.90;;;;;;5076165;28;20104;-63
2023/04/04 09:59:58;;;;;;;7.90;2.47;;;9.10;96.00;;;;;;5076689;28;20100;-63
2023/04/04 10:02:24;;;;;;;4.78;1.92;;;9.10;96.90;;;;;;5063140;28;20025;-62
2023/04/04 10:04:53;;;;;;;4.15;2.20;;;8.90;95.40;;;;;;5076318;28;20033;-62
2023/04/04 10:07:20;;;;;;;5.38;2.05;;;8.90;96.00;;;;;;5074495;28;20415;-63
2023/04/04 10:09:49;;;;;;;4.20;2.03;;;8.90;96.00;;;;;;5076187;28;20331;-62
2023/04/04 10:12:16;;;;;;;8.48;1.92;;;9.10;96.60;;;;;;5075488;28;20016;-63
2023/04/04 10:14:42;;;;;;;3.33;1.65;;;9.10;96.50;;;;;;5076174;28;20020;-63
2023/04/04 10:17:12;;;;;;;5.37;1.70;;;9.20;95.60;;;;;;5075608;28;20069;-63
2023/04/04 10:19:38;;;;;;;3.88;1.70;;;9.00;96.10;;;;;;5075858;28;20411;-62
2023/04/04 10:22:05;;;;;;;6.00;1.92;;;9.10;97.30;;;;;;5075281;28;20593;-74
2023/04/04 10:24:31;;;;;;;5.05;1.52;;;9.40;96.00;;;;;;5072964;28;20105;-62
2023/04/04 10:26:57;;;;;;;3.53;2.05;;;9.40;95.60;;;;;;5073718;28;20016;-63
2023/04/04 10:29:23;;;;;;;6.43;2.00;;;9.40;94.80;;;;;;5074216;28;20028;-62
2023/04/04 10:31:57;;;;;;;6.70;1.63;;;9.40;96.40;;;;;;5074828;28;20023;-63
2023/04/04 10:34:37;;;;;;;4.88;1.58;;;9.50;97.10;;;;;;5074489;28;20021;-63
2023/04/04 10:37:20;;;;;;;2.33;1.50;;;9.60;96.40;;;;;;5075471;28;20439;-74
2023/04/04 10:39:54;;;;;;;7.22;1.88;;;9.50;95.30;;;;;;5075560;28;20087;-63
2023/04/04 10:42:22;;;;;;;4.53;2.08;;;9.30;97.10;;;;;;5075644;28;20692;-74
2023/04/04 10:44:49;;;;;;;4.78;1.95;;;9.20;97.00;;;;;;5075267;28;20442;-63
2023/04/04 10:47:21;;;;;;;;;;;9.30;95.90;;;;;;5075796;28;20024;-63
2023/04/04 10:49:48;;;;;;;4.03;1.67;;;9.30;95.70;;;;;;5075090;28;19919;-69
2023/04/04 10:52:16;;;;;;;2.58;1.48;;;9.40;97.80;;;;;;5075325;28;20069;-63
2023/04/04 10:54:43;;;;;;;4.32;2.10;;;9.40;94.80;;;;;;5075100;28;20169;-74
2023/04/04 10:57:10;;;;;;;5.32;2.08;;;9.40;96.90;;;;;;5075091;28;20020;-62
2023/04/04 10:59:56;;;;;;;2.33;1.45;;;9.40;96.50;;;;;;5075399;28;20024;-63
2023/04/04 11:02:44;;;;;;;7.45;1.95;;;9.20;97.90;;;;;;5062911;28;20033;-63
2023/04/04 11:05:16;;;;;;;4.15;1.83;;;8.90;98.40;;;;;;5074840;28;20555;-62
2023/04/04 11:07:45;;;;;;;5.05;1.90;;;8.80;99.30;;;;;;5075041;28;20442;-62
2023/04/04 11:10:19;;;;;;;1.40;0.80;;;8.80;99.30;;;;;;5074889;28;20021;-63
2023/04/04 11:12:46;;;;;;;4.25;2.13;;;8.80;97.90;;;;;;5074959;28;20028;-62
2023/04/04 11:15:13;;;;;;;4.30;1.75;;;8.80;98.30;;;;;;5074661;28;20052;-62
2023/04/04 11:17:42;;;;;;;7.60;1.67;;;8.60;98.50;;;;;;5074955;28;20028;-63
2023/04/04 11:20:10;;;;;;;2.05;1.38;;;8.80;98.40;;;;;;5075296;28;20032;-62
2023/04/04 11:22:36;;;;;;;7.80;2.00;;;8.80;98.60;;;;;;5074947;28;20412;-62
2023/04/04 11:25:25;;;;;;;2.83;1.85;;;8.90;98.30;;;;;;5073861;28;20028;-75
2023/04/04 11:27:58;;;;;;;1.90;1.30;;;9.00;97.30;;;;;;5070831;28;20033;-63
2023/04/04 11:30:27;;;;;;;4.18;1.30;;;9.10;98.60;;;;;;5075085;28;20028;-76
2023/04/04 11:32:57;;;;;;;0.88;0.75;;;9.20;97.90;;;;;;5074571;28;20064;-63
2023/04/04 11:35:23;;;;;;;2.65;1.83;;;9.00;98.70;;;;;;5074818;28;20024;-74
2023/04/04 11:37:54;;;;;;;6.77;1.60;;;9.10;98.00;;;;;;5074835;28;20036;-73
2023/04/04 11:40:34;;;;;;;3.78;1.73;;;9.20;98.90;;;;;;5075203;28;20116;-63
2023/04/04 11:43:03;;;;;;;5.13;1.88;;;9.10;98.80;;;;;;5074260;28;20154;-63
2023/04/04 11:45:30;;;;;;;2.45;1.50;;;8.90;96.70;;;;;;5078037;28;20027;-62
2023/04/04 11:47:58;;;;;;;4.78;2.03;;;8.80;97.80;;;;;;5078734;28;20032;-62
2023/04/04 11:50:24;;;;;;;5.57;1.90;;;8.80;99.90;;;;;;5078548;28;20070;-63
2023/04/04 11:52:50;;;;;;;5.03;2.35;;;8.90;98.10;;;;;;5079030;28;20024;-63
2023/04/04 11:55:16;;;;;;;3.23;1.87;;;8.90;99.50;;;;;;5078363;28;20411;-62
2023/04/04 11:57:42;;;;;;;4.05;1.42;;;8.90;98.80;;;;;;5078933;28;20031;-62
2023/04/04 12:00:11;;;;;;;2.73;1.43;;;8.80;99.10;;;;;;5078688;28;20040;-62
2023/04/04 12:02:38;;;;;;;5.43;1.60;;;8.80;99.80;;;;;;5078507;28;20028;-62
2023/04/04 12:05:06;;;;;;;6.32;2.35;;;8.90;99.50;;;;;;5078459;28;20111;-62
2023/04/04 12:07:34;;;;;;;4.75;1.88;;;8.80;98.50;;;;;;5078343;28;20028;-63
2023/04/04 12:10:00;;;;;;;4.15;1.40;;;9.00;98.10;;;;;;5078399;28;20021;-63
2023/04/04 12:12:27;;;;;;;3.22;1.65;;;8.80;99.10;;;;;;5077014;28;20028;-63
2023/04/04 12:14:54;;;;;;;6.10;1.95;;;8.90;98.40;;;;;;5078220;28;20020;-62
2023/04/04 12:17:19;;;;;;;2.70;1.63;;;8.90;98.10;;;;;;5078374;28;20052;-75
2023/04/04 12:19:45;;;;;;;5.37;2.40;;;9.00;98.40;;;;;;5078222;28;20060;-63
2023/04/04 12:22:11;;;;;;;5.40;2.13;;;9.20;98.70;;;;;;5077837;28;20066;-62
2023/04/04 12:24:37;;;;;;;3.50;1.50;;;9.20;98.60;;;;;;5078243;28;20032;-62
2023/04/04 12:27:04;;;;;;;1.58;1.30;;;9.10;99.90;;;;;;5077853;28;20092;-76
2023/04/04 12:29:35;;;;;;;3.70;1.25;;;8.80;98.70;;;;;;5078014;28;20028;-63
2023/04/04 12:32:01;;;;;;;4.97;1.80;;;8.90;99.70;;;;;;5077910;28;20327;-63
2023/04/04 12:34:28;;;;;;;;;;;9.00;98.90;;;;;;5078033;28;20027;-65
2023/04/04 12:36:56;;;;;;;3.47;1.52;;;9.00;98.70;;;;;;5077944;28;19955;-62
2023/04/04 12:39:26;;;;;;;1.42;1.00;;;9.20;99.30;;;;;;5078041;28;20035;-62
2023/04/04 12:41:57;;;;;;;5.60;1.85;;;9.20;98.90;;;;;;5077645;28;20025;-62
2023/04/04 12:44:38;;;;;;;4.30;1.85;;;9.10;98.90;;;;;;5078194;28;20055;-62
2023/04/04 12:47:06;;;;;;;2.33;1.23;;;9.00;98.90;;;;;;5064636;28;20028;-62
2023/04/04 12:49:39;;;;;;;4.60;1.83;;;9.00;99.50;;;;;;5077850;28;20426;-62
2023/04/04 12:52:06;;;;;;;3.30;1.55;;;9.00;98.70;;;;;;5077519;28;20324;-63
2023/04/04 12:54:38;;;;;;;11.20;2.05;;;9.20;99.00;;;;;;5077831;28;20031;-62